createdAt,value
2023-05-08T00:04:36.458Z,13.82
2023-05-08T00:10:39.915Z,16.35
2023-05-08T00:16:44.865Z,16.27
2023-05-08T00:22:48.388Z,19.35
2023-05-08T00:28:51.988Z,19.45
2023-05-08T00:34:56.860Z,17.48
2023-05-08T00:41:00.448Z,19.00
2023-05-08T00:47:04.249Z,14.20
2023-05-08T00:53:08.997Z,11.98
2023-05-08T00:59:14.282Z,14.77
2023-05-08T01:05:17.654Z,14.75
2023-05-08T01:11:25.987Z,16.20
2023-05-08T01:17:35.534Z,15.35
2023-05-08T01:23:52.564Z,15.20
2023-05-08T01:30:14.231Z,13.20
2023-05-08T01:36:25.724Z,13.65
2023-05-08T01:42:34.629Z,14.55
2023-05-08T01:48:40.404Z,14.68
2023-05-08T01:54:48.371Z,14.85
2023-05-08T02:00:52.315Z,14.25
2023-05-08T02:06:56.180Z,14.30
2023-05-08T02:13:02.109Z,14.15
2023-05-08T02:19:06.722Z,15.85
2023-05-08T02:25:13.219Z,15.95
2023-05-08T02:31:19.050Z,14.38
2023-05-08T02:37:23.844Z,13.27
2023-05-08T02:43:27.353Z,13.70
2023-05-08T02:49:34.025Z,10.65
2023-05-08T02:55:42.207Z,11.00
2023-05-08T03:01:50.145Z,12.00
2023-05-08T03:07:56.779Z,12.45
2023-05-08T03:14:03.654Z,11.82
2023-05-08T03:20:08.220Z,11.55
2023-05-08T03:26:13.783Z,10.38
2023-05-08T03:32:17.708Z,10.20
2023-05-08T03:38:22.239Z,9.13
2023-05-08T03:44:27.491Z,9.32
2023-05-08T03:50:31.324Z,8.95
2023-05-08T03:56:35.401Z,10.40
2023-05-08T04:02:43.402Z,10.90
2023-05-08T04:08:50.372Z,10.32
2023-05-08T04:14:56.811Z,8.57
2023-05-08T04:21:03.301Z,8.18
2023-05-08T04:27:06.767Z,7.95
2023-05-08T04:33:10.462Z,7.75
2023-05-08T04:39:15.451Z,8.52
2023-05-08T04:45:19.174Z,8.43
2023-05-08T04:51:22.738Z,7.97
2023-05-08T04:57:27.610Z,8.13
2023-05-08T05:03:31.212Z,8.93
2023-05-08T05:09:37.047Z,8.93
2023-05-08T05:15:43.837Z,9.95
2023-05-08T05:21:48.099Z,9.65
2023-05-08T05:27:51.795Z,10.05
2023-05-08T05:33:57.330Z,10.00
2023-05-08T05:40:00.914Z,8.45
2023-05-08T05:46:07.646Z,8.30
2023-05-08T05:52:12.739Z,7.45
2023-05-08T05:58:20.063Z,8.45
2023-05-08T06:04:23.488Z,7.55
2023-05-08T06:10:28.533Z,8.27
2023-05-08T06:16:32.225Z,8.75
2023-05-08T06:22:37.720Z,7.18
2023-05-08T06:28:42.734Z,8.20
2023-05-08T06:34:46.160Z,8.10
2023-05-08T06:40:50.176Z,7.00
2023-05-08T06:46:55.325Z,6.20
2023-05-08T06:52:58.979Z,6.95
2023-05-08T06:59:08.425Z,6.68
2023-05-08T07:05:14.224Z,8.05
2023-05-08T07:11:18.577Z,10.20
2023-05-08T07:17:22.985Z,9.15
2023-05-08T07:23:27.901Z,9.32
2023-05-08T07:29:31.338Z,10.85
2023-05-08T07:35:34.888Z,11.68
2023-05-08T07:41:41.135Z,12.85
2023-05-08T07:47:51.613Z,12.10
2023-05-08T07:53:55.625Z,12.85
2023-05-08T08:00:05.418Z,14.77
2023-05-08T08:06:08.961Z,12.65
2023-05-08T08:12:12.418Z,12.77
2023-05-08T08:18:17.513Z,13.07
2023-05-08T08:24:21.209Z,13.85
2023-05-08T08:30:24.656Z,14.70
2023-05-08T08:36:29.436Z,13.80
2023-05-08T08:42:33.020Z,13.15
2023-05-08T08:48:37.244Z,15.18
2023-05-08T08:54:42.298Z,14.70
2023-05-08T09:00:46.073Z,9.88
2023-05-08T09:06:51.346Z,14.18
2023-05-08T09:12:56.398Z,13.13
2023-05-08T09:18:59.859Z,11.95
2023-05-08T09:25:03.483Z,11.52
2023-05-08T09:31:08.337Z,9.20
2023-05-08T09:37:14.897Z,11.45
2023-05-08T09:43:18.280Z,11.40
2023-05-08T09:49:23.195Z,11.85
2023-05-08T09:55:26.599Z,11.93
2023-05-08T10:01:30.990Z,14.15
2023-05-08T10:07:37.207Z,7.45
2023-05-08T10:13:40.707Z,10.43
2023-05-08T10:19:47.911Z,7.65
2023-05-08T10:25:55.192Z,6.30
2023-05-08T10:32:01.017Z,8.95
2023-05-08T10:38:05.646Z,6.55
2023-05-08T10:44:11.477Z,9.25
2023-05-08T10:50:21.481Z,9.55
2023-05-08T10:56:28.169Z,12.60
2023-05-08T11:02:37.193Z,12.43
2023-05-08T11:08:48.857Z,13.57
2023-05-08T11:14:57.121Z,11.60
2023-05-08T11:21:04.183Z,10.38
2023-05-08T11:27:09.121Z,7.55
2023-05-08T11:33:15.891Z,9.05
2023-05-08T11:39:20.729Z,8.85
2023-05-08T11:45:24.492Z,8.10
2023-05-08T11:51:32.754Z,6.30
2023-05-08T11:57:37.841Z,6.15
2023-05-08T12:03:41.664Z,6.43
2023-05-08T12:09:45.137Z,7.43
2023-05-08T12:15:50.648Z,4.45
2023-05-08T12:21:54.066Z,4.57
2023-05-08T12:27:57.674Z,6.07
2023-05-08T12:34:03.029Z,5.30
2023-05-08T12:40:06.908Z,5.63
2023-05-08T12:46:14.662Z,5.53
2023-05-08T12:52:19.532Z,4.85
2023-05-08T12:58:26.599Z,5.47
2023-05-08T13:04:30.222Z,5.10
2023-05-08T13:10:48.194Z,6.55
2023-05-08T13:16:52.379Z,7.13
2023-05-08T13:22:55.971Z,5.00
2023-05-08T13:29:00.782Z,5.70
2023-05-08T13:35:04.787Z,6.03
2023-05-08T13:41:08.168Z,6.32
2023-05-08T13:47:13.002Z,5.90
2023-05-08T13:53:16.434Z,5.22
2023-05-08T13:59:19.976Z,5.65
2023-05-08T14:05:24.770Z,6.45
2023-05-08T14:11:28.389Z,4.53
2023-05-08T14:17:32.291Z,5.63
2023-05-08T14:23:38.779Z,5.53
2023-05-08T14:29:42.535Z,4.93
2023-05-08T14:35:48.254Z,4.03
2023-05-08T14:42:10.368Z,5.38
2023-05-08T14:48:16.381Z,5.13
2023-05-08T14:54:20.003Z,5.25
2023-05-08T15:00:25.348Z,5.80
2023-05-08T15:06:30.986Z,5.50
2023-05-08T15:12:34.561Z,5.60
2023-05-08T15:18:40.335Z,4.97
2023-05-08T15:24:43.806Z,6.97
2023-05-08T15:30:47.798Z,5.68
2023-05-08T15:36:52.898Z,5.40
2023-05-08T15:42:56.306Z,3.30
2023-05-08T15:49:01.969Z,3.42
2023-05-08T15:55:08.257Z,3.70
2023-05-08T16:01:12.484Z,3.67
2023-05-08T16:07:16.067Z,3.13
2023-05-08T16:13:21.454Z,3.53
2023-05-08T16:19:25.098Z,2.72
2023-05-08T16:25:28.701Z,2.60
2023-05-08T16:31:33.621Z,3.30
2023-05-08T16:37:37.682Z,2.55
2023-05-08T16:43:41.609Z,2.47
2023-05-08T16:49:46.483Z,2.60
2023-05-08T16:55:50.116Z,2.13
2023-05-08T17:01:54.104Z,2.30
2023-05-08T17:07:59.176Z,2.30
2023-05-08T17:14:02.742Z,2.47
2023-05-08T17:20:06.812Z,2.28
2023-05-08T17:26:11.707Z,2.83
2023-05-08T17:32:15.170Z,2.88
2023-05-08T17:38:18.684Z,2.53
2023-05-08T17:44:23.496Z,2.50
2023-05-08T17:50:27.370Z,2.35
2023-05-08T17:56:31.925Z,2.72
2023-05-08T18:02:36.940Z,3.20
2023-05-08T18:08:42.106Z,3.28
2023-05-08T18:14:45.823Z,2.70
2023-05-08T18:20:50.941Z,3.00
2023-05-08T18:26:54.448Z,3.17
2023-05-08T18:32:57.928Z,2.42
2023-05-08T18:39:02.821Z,4.10
2023-05-08T18:45:07.160Z,4.68
2023-05-08T18:51:10.682Z,4.07
2023-05-08T18:57:15.957Z,3.97
2023-05-08T19:03:19.497Z,4.88
2023-05-08T19:09:23.255Z,4.80
2023-05-08T19:15:28.240Z,4.93
2023-05-08T19:21:32.027Z,4.50
2023-05-08T19:27:35.667Z,4.25
2023-05-08T19:33:40.812Z,3.45
2023-05-08T19:39:44.334Z,4.15
2023-05-08T19:45:47.903Z,4.03
2023-05-08T19:51:52.695Z,3.55
2023-05-08T19:57:56.151Z,3.83
2023-05-08T20:04:00.923Z,4.50
2023-05-08T20:10:06.495Z,4.13
2023-05-08T20:16:10.266Z,4.53
2023-05-08T20:22:13.826Z,4.07
2023-05-08T20:28:22.303Z,4.00
2023-05-08T20:34:26.034Z,3.80
2023-05-08T20:40:29.570Z,3.95
2023-05-08T20:46:34.678Z,3.67
2023-05-08T20:52:39.968Z,4.03
2023-05-08T20:58:44.933Z,3.90
2023-05-08T21:04:49.699Z,3.60
2023-05-08T21:10:53.205Z,3.90
2023-05-08T21:16:56.772Z,4.53
2023-05-08T21:23:01.808Z,4.40
2023-05-08T21:29:05.534Z,5.07
2023-05-08T21:35:09.311Z,5.20
2023-05-08T21:41:14.189Z,5.38
2023-05-08T21:47:17.856Z,6.85
2023-05-08T21:53:21.446Z,7.95
2023-05-08T21:59:26.573Z,8.07
2023-05-08T22:05:30.317Z,8.65
2023-05-08T22:11:33.769Z,8.98
2023-05-08T22:17:39.623Z,8.95
2023-05-08T22:23:43.195Z,9.43
2023-05-08T22:29:46.719Z,10.88
2023-05-08T22:35:51.713Z,9.27
2023-05-08T22:41:55.796Z,9.25
2023-05-08T22:47:59.331Z,8.77
2023-05-08T22:54:04.162Z,8.50
2023-05-08T23:00:09.043Z,8.73
2023-05-08T23:06:12.680Z,8.75
2023-05-08T23:12:17.515Z,9.18
2023-05-08T23:18:21.054Z,7.82
2023-05-08T23:24:24.513Z,7.60
2023-05-08T23:30:29.695Z,7.95
2023-05-08T23:36:33.246Z,7.65
2023-05-08T23:42:37.228Z,7.75
2023-05-08T23:48:42.216Z,7.13
2023-05-08T23:54:45.627Z,7.10
